Time;durP1;ratioP1;P1;durP2;ratioP2;P2;SDS_P1;SDS_P2;PMS_P1;PMS_P2;Temp;Humidity;BMP_temperature;BMP_pressure;BME280_temperature;BME280_humidity;BME280_pressure;Samples;Min_cycle;Max_cycle;Signal;HPM_P1;HPM_P2
2023/04/18 00:02:21;;;;;;;;;;;;;;;8.26;69.18;92826.00;2058032;69;20046;-74
2023/04/18 00:04:49;;;;;;;;;;;;;;;8.25;67.69;92821.00;2058209;69;20041;-81
2023/04/18 00:07:17;;;;;;;;;;;;;;;8.20;67.67;92822.00;2058127;69;20145;-81
2023/04/18 00:09:43;;;;;;;;;;;;;;;8.18;68.11;92822.63;2058345;69;20046;-80
2023/04/18 00:12:09;;;;;;;;;;;;;;;8.11;68.92;92824.25;2058616;69;20046;-79
2023/04/18 00:14:36;;;;;;;;;;;;;;;8.14;67.72;92823.06;2059020;69;20209;-80
2023/04/18 00:17:07;;;;;;;;;;;;;;;8.11;68.09;92826.34;2059097;69;20057;-81
2023/04/18 00:19:35;;;;;;;;;;;;;;;7.99;67.64;92825.44;2058654;69;20148;-75
2023/04/18 00:22:01;;;;;;;;;;;;;;;7.95;67.68;92819.56;2051799;69;20050;-81
2023/04/18 00:24:28;;;;;;;;;;;;;;;7.89;68.72;92820.59;2059538;69;20093;-80
2023/04/18 00:26:57;;;;;;;;;;;;;;;7.86;67.94;92818.97;2060397;69;20144;-78
2023/04/18 00:29:22;;;;;;;;;;;;;;;7.76;67.51;92815.44;2060824;69;20145;-78
2023/04/18 00:31:48;;;;;;;;;;;;;;;7.68;68.03;92817.63;2040843;69;20054;-77
2023/04/18 00:34:15;;;;;;;;;;;;;;;7.71;68.85;92816.47;2058457;69;20157;-78
2023/04/18 00:36:41;;;;;;;;;;;;;;;7.71;69.02;92824.13;2058383;69;20052;-78
2023/04/18 00:39:06;;;;;;;;;;;;;;;7.76;68.35;92818.22;2035387;70;20123;-78
2023/04/18 00:41:32;;;;;;;;;;;;;;;7.76;68.55;92823.09;2032865;70;20137;-78
2023/04/18 00:43:57;;;;;;;;;;;;;;;7.67;69.50;92821.03;2035637;70;20048;-79
2023/04/18 00:46:24;;;;;;;;;;;;;;;7.69;68.38;92815.56;2035416;70;20484;-78
2023/04/18 00:48:50;;;;;;;;;;;;;;;7.77;67.85;92822.50;2038538;69;20175;-76
2023/04/18 00:54:44;;;;;;;;;;;;;;;7.74;68.16;92820.88;2058073;69;20053;-77
2023/04/18 00:57:10;;;;;;;;;;;;;;;7.80;68.00;92821.34;2035588;70;20044;-79
2023/04/18 00:59:37;;;;;;;;;;;;;;;7.75;69.29;92818.84;2035641;70;20362;-77
2023/04/18 01:02:03;;;;;;;;;;;;;;;7.78;69.56;92815.56;2038644;70;20064;-77
2023/04/18 01:04:29;;;;;;;;;;;;;;;7.84;69.49;92812.47;2054413;69;20491;-76
2023/04/18 01:06:54;;;;;;;;;;;;;;;7.86;68.53;92816.16;2038895;70;20115;-78
2023/04/18 01:09:22;;;;;;;;;;;;;;;7.86;69.90;92812.63;2058094;69;20111;-79
2023/04/18 01:11:50;;;;;;;;;;;;;;;7.94;69.10;92818.81;2035594;70;20432;-78
2023/04/18 01:14:17;;;;;;;;;;;;;;;7.87;69.28;92814.09;2035487;70;20503;-78
2023/04/18 01:16:44;;;;;;;;;;;;;;;7.81;69.51;92805.97;2038329;70;20052;-77
2023/04/18 01:19:10;;;;;;;;;;;;;;;7.84;69.88;92809.69;2058235;69;20050;-79
2023/04/18 01:21:36;;;;;;;;;;;;;;;7.82;69.01;92807.44;2058038;69;20116;-78
2023/04/18 01:24:09;;;;;;;;;;;;;;;7.87;69.82;92809.22;2058387;69;20084;-77
2023/04/18 01:26:35;;;;;;;;;;;;;;;7.91;69.34;92805.97;2058430;69;20152;-79
2023/04/18 01:29:03;;;;;;;;;;;;;;;7.90;70.08;92802.44;2043101;70;20064;-80
2023/04/18 01:31:29;;;;;;;;;;;;;;;7.94;69.58;92807.59;2035558;70;20118;-78
2023/04/18 01:33:55;;;;;;;;;;;;;;;8.00;69.12;92805.22;2049198;70;20054;-78
2023/04/18 01:36:21;;;;;;;;;;;;;;;7.98;69.88;92802.28;2051571;70;20074;-79
2023/04/18 01:38:47;;;;;;;;;;;;;;;7.92;70.13;92799.03;2054607;70;20050;-78
2023/04/18 01:41:13;;;;;;;;;;;;;;;7.95;69.56;92802.72;2054689;70;20050;-79
2023/04/18 01:43:41;;;;;;;;;;;;;;;8.03;69.38;92806.84;2054497;70;20057;-78
2023/04/18 01:46:08;;;;;;;;;;;;;;;8.13;69.46;92809.66;2048096;70;20153;-79
2023/04/18 01:48:34;;;;;;;;;;;;;;;8.09;69.85;92806.53;2051074;70;20511;-77
2023/04/18 01:50:59;;;;;;;;;;;;;;;8.02;69.72;92801.84;2054394;70;20059;-79
2023/04/18 01:53:26;;;;;;;;;;;;;;;8.09;69.53;92798.13;2051075;70;20478;-78
2023/04/18 01:55:53;;;;;;;;;;;;;;;8.11;68.71;92801.84;2051169;70;20161;-77
2023/04/18 01:58:22;;;;;;;;;;;;;;;8.08;69.15;92802.28;2051391;70;20501;-78
2023/04/18 02:00:58;;;;;;;;;;;;;;;8.11;69.40;92796.22;2051549;70;20046;-79
2023/04/18 02:03:24;;;;;;;;;;;;;;;7.98;69.60;92795.94;2054879;70;20070;-78
2023/04/18 02:05:51;;;;;;;;;;;;;;;8.05;69.89;92797.84;2055340;70;20472;-80
2023/04/18 02:08:17;;;;;;;;;;;;;;;8.04;70.24;92802.72;2052958;70;20062;-78
2023/04/18 02:10:44;;;;;;;;;;;;;;;7.99;70.69;92797.41;2055079;70;20054;-78
2023/04/18 02:13:10;;;;;;;;;;;;;;;8.02;69.98;92802.59;2051575;70;20093;-79
2023/04/18 02:15:36;;;;;;;;;;;;;;;7.96;69.93;92790.91;2051967;70;20050;-77
2023/04/18 02:18:02;;;;;;;;;;;;;;;7.92;69.39;92799.03;2055276;70;20078;-80
2023/04/18 02:20:32;;;;;;;;;;;;;;;8.03;69.64;92792.84;2055076;70;20050;-78
2023/04/18 02:23:01;;;;;;;;;;;;;;;8.03;69.84;92800.50;2051998;70;20058;-79
2023/04/18 02:25:29;;;;;;;;;;;;;;;8.01;69.49;92798.28;2052024;70;20046;-79
2023/04/18 02:27:55;;;;;;;;;;;;;;;7.89;70.61;92805.84;2055218;70;20537;-79
2023/04/18 02:30:21;;;;;;;;;;;;;;;7.88;70.00;92810.72;2055333;70;20093;-78
2023/04/18 02:32:50;;;;;;;;;;;;;;;7.82;69.61;92803.91;2056214;69;20120;-80
2023/04/18 02:35:20;;;;;;;;;;;;;;;7.83;70.14;92806.16;2058289;69;20120;-78
2023/04/18 02:37:48;;;;;;;;;;;;;;;7.72;70.51;92803.19;2058353;69;20149;-78
2023/04/18 02:40:16;;;;;;;;;;;;;;;7.80;69.13;92807.31;2055065;69;20054;-79
2023/04/18 02:42:43;;;;;;;;;;;;;;;7.80;69.72;92803.78;2057725;69;20144;-79
2023/04/18 02:45:13;;;;;;;;;;;;;;;7.81;69.35;92802.44;2054924;69;20054;-80
2023/04/18 02:47:41;;;;;;;;;;;;;;;7.82;70.02;92807.44;2058133;69;20056;-79
2023/04/18 02:50:09;;;;;;;;;;;;;;;7.76;70.00;92809.09;2058236;69;20510;-79
2023/04/18 02:56:07;;;;;;;;;;;;;;;7.82;69.67;92806.72;2058505;69;20048;-80
2023/04/18 02:58:53;;;;;;;;;;;;;;;7.89;69.88;92805.84;2041873;69;20556;-79
2023/04/18 03:01:43;;;;;;;;;;;;;;;7.80;70.27;92806.59;2054756;69;20134;-79
2023/04/18 03:04:13;;;;;;;;;;;;;;;7.74;71.08;92808.94;2054817;69;20176;-79
2023/04/18 03:06:44;;;;;;;;;;;;;;;7.84;70.52;92807.63;2057648;69;20061;-79
2023/04/18 03:09:10;;;;;;;;;;;;;;;7.90;70.31;92810.84;2054984;69;20062;-80
2023/04/18 03:11:47;;;;;;;;;;;;;;;7.95;69.12;92811.16;2058343;69;20046;-78
2023/04/18 03:14:15;;;;;;;;;;;;;;;7.83;70.31;92811.75;2054858;69;20054;-76
2023/04/18 03:16:49;;;;;;;;;;;;;;;7.81;71.16;92805.25;2054751;69;20172;-77
2023/04/18 03:19:21;;;;;;;;;;;;;;;7.82;71.00;92804.66;2054697;69;20050;-78
2023/04/18 03:22:00;;;;;;;;;;;;;;;7.70;71.37;92797.41;2054541;69;20054;-79
2023/04/18 03:24:27;;;;;;;;;;;;;;;7.72;71.05;92800.38;2054835;69;20046;-76
2023/04/18 03:26:59;;;;;;;;;;;;;;;7.71;70.15;92799.66;2054987;69;20483;-79
2023/04/18 03:29:26;;;;;;;;;;;;;;;7.64;70.50;92804.06;2055272;69;20050;-79
2023/04/18 03:31:55;;;;;;;;;;;;;;;7.62;70.91;92803.94;2058449;69;20108;-80
2023/04/18 03:34:25;;;;;;;;;;;;;;;7.63;69.77;92807.47;2059301;69;20058;-79
2023/04/18 03:36:55;;;;;;;;;;;;;;;7.58;70.21;92797.28;2058853;69;20087;-78
2023/04/18 03:39:22;;;;;;;;;;;;;;;7.58;70.02;92805.69;2057816;69;20097;-79
2023/04/18 03:41:49;;;;;;;;;;;;;;;7.41;70.84;92800.97;2058354;69;20052;-79
2023/04/18 03:44:15;;;;;;;;;;;;;;;7.31;70.44;92803.00;2052263;69;20057;-79
2023/04/18 03:46:46;;;;;;;;;;;;;;;7.25;70.67;92800.50;2058207;69;20084;-79
2023/04/18 03:49:12;;;;;;;;;;;;;;;7.18;70.70;92801.38;2055295;69;20077;-79
2023/04/18 03:51:43;;;;;;;;;;;;;;;7.12;70.77;92796.06;2058254;69;20058;-79
2023/04/18 03:54:09;;;;;;;;;;;;;;;7.07;70.22;92804.75;2051929;69;20062;-76
2023/04/18 03:56:40;;;;;;;;;;;;;;;6.94;70.38;92800.28;2054817;69;20054;-73
2023/04/18 03:59:08;;;;;;;;;;;;;;;6.87;70.54;92796.31;2057488;69;20058;-77
2023/04/18 04:01:34;;;;;;;;;;;;;;;6.85;70.29;92795.41;2054571;69;20534;-78
2023/04/18 04:04:01;;;;;;;;;;;;;;;6.82;70.31;92799.34;2054886;69;20084;-78
2023/04/18 04:06:27;;;;;;;;;;;;;;;6.79;71.14;92797.75;2058143;69;20139;-75
2023/04/18 04:08:53;;;;;;;;;;;;;;;6.71;70.70;92806.25;2054842;69;20057;-73
2023/04/18 04:11:22;;;;;;;;;;;;;;;6.69;70.54;92808.91;2054612;69;20069;-79
2023/04/18 04:13:48;;;;;;;;;;;;;;;6.59;70.08;92805.31;2054965;69;20052;-76
2023/04/18 04:16:16;;;;;;;;;;;;;;;6.61;70.28;92814.59;2054742;69;20436;-75
2023/04/18 04:18:42;;;;;;;;;;;;;;;6.63;68.93;92811.22;2054748;69;20070;-75
2023/04/18 04:21:07;;;;;;;;;;;;;;;6.62;69.25;92807.69;2057325;69;20133;-77
2023/04/18 04:23:45;;;;;;;;;;;;;;;6.51;68.61;92811.03;2054877;69;20046;-77
2023/04/18 04:26:22;;;;;;;;;;;;;;;6.49;69.22;92815.72;2054703;69;20121;-76
2023/04/18 04:28:56;;;;;;;;;;;;;;;6.47;69.90;92812.78;2054608;69;20482;-77
2023/04/18 04:31:25;;;;;;;;;;;;;;;6.47;69.58;92821.91;2054627;69;20054;-77
2023/04/18 04:33:50;;;;;;;;;;;;;;;6.48;70.08;92819.84;2057679;69;20422;-76
2023/04/18 04:36:19;;;;;;;;;;;;;;;6.46;68.83;92823.25;2054626;69;20478;-76
2023/04/18 04:38:46;;;;;;;;;;;;;;;6.34;69.85;92822.28;2058075;69;20065;-76
2023/04/18 04:41:12;;;;;;;;;;;;;;;6.32;70.19;92830.50;2057532;69;20070;-74
2023/04/18 04:43:39;;;;;;;;;;;;;;;6.28;70.07;92833.75;2054656;69;20490;-76
2023/04/18 04:46:06;;;;;;;;;;;;;;;6.33;69.14;92829.19;2057331;69;20053;-73
2023/04/18 04:48:32;;;;;;;;;;;;;;;6.21;69.49;92828.97;2051725;69;20410;-76
2023/04/18 04:50:58;;;;;;;;;;;;;;;6.24;69.81;92830.63;2054529;69;20082;-76
2023/04/18 04:53:25;;;;;;;;;;;;;;;6.11;70.09;92830.97;2054714;69;20171;-76
2023/04/18 04:55:51;;;;;;;;;;;;;;;6.10;70.20;92829.50;2054631;69;20112;-74
2023/04/18 04:58:16;;;;;;;;;;;;;;;6.12;70.35;92832.44;2057960;69;20050;-76
2023/04/18 05:01:00;;;;;;;;;;;;;;;6.02;69.72;92840.03;2054786;69;20124;-74
2023/04/18 05:03:25;;;;;;;;;;;;;;;5.98;70.34;92845.31;2054684;69;20492;-74
2023/04/18 05:05:51;;;;;;;;;;;;;;;6.08;70.22;92832.13;2055432;69;20086;-77
2023/04/18 05:08:16;;;;;;;;;;;;;;;6.02;70.24;92840.03;2061864;69;20192;-78
2023/04/18 05:10:42;;;;;;;;;;;;;;;6.05;70.23;92833.31;2062520;69;20073;-75
2023/04/18 05:13:07;;;;;;;;;;;;;;;6.06;69.30;92840.38;2061767;69;20481;-77
2023/04/18 05:15:33;;;;;;;;;;;;;;;5.95;70.46;92836.00;2058916;69;20062;-76
2023/04/18 05:17:58;;;;;;;;;;;;;;;5.99;70.42;92835.59;2058371;69;20054;-73
2023/04/18 05:20:24;;;;;;;;;;;;;;;6.06;69.49;92841.09;2058802;69;20053;-73
2023/04/18 05:22:50;;;;;;;;;;;;;;;6.05;70.04;92841.69;2059464;69;20058;-78
2023/04/18 05:25:15;;;;;;;;;;;;;;;6.07;70.13;92842.56;2058134;69;20054;-77
2023/04/18 05:27:41;;;;;;;;;;;;;;;6.05;70.54;92847.28;2058044;69;20042;-77
2023/04/18 05:30:07;;;;;;;;;;;;;;;6.01;70.44;92846.94;2058016;69;20518;-77
2023/04/18 05:32:33;;;;;;;;;;;;;;;5.97;70.56;92847.38;2058161;69;20106;-77
2023/04/18 05:34:58;;;;;;;;;;;;;;;6.04;69.53;92851.38;2058397;69;20093;-78
2023/04/18 05:37:24;;;;;;;;;;;;;;;6.05;69.77;92848.00;2058538;69;20413;-78
2023/04/18 05:39:49;;;;;;;;;;;;;;;5.97;69.62;92849.44;2058495;69;20050;-77
2023/04/18 05:42:15;;;;;;;;;;;;;;;6.01;70.32;92842.09;2058503;69;20057;-77
2023/04/18 05:44:40;;;;;;;;;;;;;;;5.98;70.45;92851.63;2058425;69;20116;-77
2023/04/18 05:47:06;;;;;;;;;;;;;;;6.08;70.06;92848.91;2058257;69;20064;-76
2023/04/18 05:53:00;;;;;;;;;;;;;;;6.05;69.73;92862.00;2058466;69;20048;-77
2023/04/18 05:55:25;;;;;;;;;;;;;;;5.80;70.33;92862.06;2058509;69;20069;-77
2023/04/18 06:01:20;;;;;;;;;;;;;;;6.02;70.44;92870.78;2058333;69;20076;-77
2023/04/18 06:03:45;;;;;;;;;;;;;;;6.08;69.99;92874.78;2058510;69;20113;-79
2023/04/18 06:06:12;;;;;;;;;;;;;;;6.10;70.08;92872.16;2058343;69;20156;-77
2023/04/18 06:08:38;;;;;;;;;;;;;;;6.06;70.69;92866.25;2058342;69;20074;-74
2023/04/18 06:11:04;;;;;;;;;;;;;;;6.27;69.17;92863.00;2057850;69;20563;-77
2023/04/18 06:16:59;;;;;;;;;;;;;;;6.23;69.78;92873.13;2058266;69;20048;-77
2023/04/18 06:22:52;;;;;;;;;;;;;;;6.18;69.44;92865.72;2058360;69;20160;-76
2023/04/18 06:25:18;;;;;;;;;;;;;;;6.35;69.37;92868.50;2058166;69;20085;-77
2023/04/18 06:27:43;;;;;;;;;;;;;;;6.42;70.00;92861.34;2058194;69;20589;-78
2023/04/18 06:30:09;;;;;;;;;;;;;;;6.49;69.31;92860.47;2058345;69;20433;-78
2023/04/18 06:32:34;;;;;;;;;;;;;;;6.59;68.81;92864.78;2058359;69;20046;-75
2023/04/18 06:35:00;;;;;;;;;;;;;;;6.62;68.05;92866.44;2059045;69;20050;-74
2023/04/18 06:37:25;;;;;;;;;;;;;;;6.40;68.11;92856.31;2055020;69;20421;-73
2023/04/18 06:39:51;;;;;;;;;;;;;;;6.79;68.92;92857.25;2058147;69;20050;-79
2023/04/18 06:42:16;;;;;;;;;;;;;;;6.90;70.07;92858.00;2058250;69;20056;-81
2023/04/18 06:44:46;;;;;;;;;;;;;;;7.31;67.93;92851.34;2055001;69;20135;-79
2023/04/18 06:47:11;;;;;;;;;;;;;;;7.90;68.27;92855.69;2058214;69;20057;-79
2023/04/18 06:49:37;;;;;;;;;;;;;;;8.19;65.75;92851.41;2058539;69;20054;-80
2023/04/18 06:55:31;;;;;;;;;;;;;;;9.06;63.71;92846.31;2058464;69;20048;-81
2023/04/18 06:57:59;;;;;;;;;;;;;;;9.12;60.88;92851.63;2058402;69;20054;-78
2023/04/18 07:00:24;;;;;;;;;;;;;;;9.51;61.11;92854.94;2058283;69;20066;-79
2023/04/18 07:02:50;;;;;;;;;;;;;;;9.88;62.23;92860.91;2058314;69;20101;-80
2023/04/18 07:05:15;;;;;;;;;;;;;;;9.84;61.33;92857.09;2058083;69;20054;-81
2023/04/18 07:07:41;;;;;;;;;;;;;;;10.21;60.19;92860.22;2059103;69;20081;-79
2023/04/18 07:10:08;;;;;;;;;;;;;;;10.41;58.30;92861.56;2062318;69;20137;-79
2023/04/18 07:12:33;;;;;;;;;;;;;;;10.72;56.91;92857.84;2060951;69;20057;-81
2023/04/18 07:14:59;;;;;;;;;;;;;;;10.95;56.72;92857.16;2058416;69;20050;-81
2023/04/18 07:17:24;;;;;;;;;;;;;;;11.21;55.02;92860.84;2058192;69;20062;-81
2023/04/18 07:19:50;;;;;;;;;;;;;;;11.50;54.66;92854.09;2058619;69;20081;-80
2023/04/18 07:22:15;;;;;;;;;;;;;;;11.70;54.10;92846.84;2058288;69;20046;-72
2023/04/18 07:24:41;;;;;;;;;;;;;;;12.06;54.09;92851.09;2058152;69;20096;-78
2023/04/18 07:27:08;;;;;;;;;;;;;;;12.07;53.40;92846.19;2058339;69;20057;-79
2023/04/18 07:29:33;;;;;;;;;;;;;;;12.55;51.47;92855.91;2058318;69;20050;-79
2023/04/18 07:31:59;;;;;;;;;;;;;;;13.03;51.42;92845.84;2057689;69;20058;-79
2023/04/18 07:34:28;;;;;;;;;;;;;;;12.99;51.34;92852.00;2057952;69;20148;-80
2023/04/18 07:36:57;;;;;;;;;;;;;;;13.20;50.35;92854.56;2058122;69;20120;-78
2023/04/18 07:39:22;;;;;;;;;;;;;;;13.52;50.20;92854.13;2058156;69;20062;-75
2023/04/18 07:41:47;;;;;;;;;;;;;;;13.47;50.34;92847.53;2058362;69;20066;-78
2023/04/18 07:44:13;;;;;;;;;;;;;;;14.23;49.26;92849.97;2058077;69;20058;-81
2023/04/18 07:46:38;;;;;;;;;;;;;;;14.06;49.84;92850.50;2058035;69;20052;-80
2023/04/18 07:49:04;;;;;;;;;;;;;;;14.71;48.46;92853.00;2058182;69;20504;-74
2023/04/18 07:51:33;;;;;;;;;;;;;;;14.85;47.27;92847.28;2058258;69;20166;-72
2023/04/18 07:53:59;;;;;;;;;;;;;;;15.04;46.26;92851.72;2058296;69;20053;-77
2023/04/18 07:56:25;;;;;;;;;;;;;;;15.63;44.85;92855.13;2058143;69;20093;-76
2023/04/18 07:58:51;;;;;;;;;;;;;;;15.65;45.52;92852.38;2057968;69;20046;-76
2023/04/18 08:01:18;;;;;;;;;;;;;;;15.63;42.73;92849.44;2054869;69;20057;-77
2023/04/18 08:03:45;;;;;;;;;;;;;;;14.73;43.03;92847.44;2058200;69;20196;-81
2023/04/18 08:06:10;;;;;;;;;;;;;;;15.52;44.40;92848.25;2052227;69;20502;-80
2023/04/18 08:08:36;;;;;;;;;;;;;;;16.10;42.81;92848.66;2058388;69;20050;-80
2023/04/18 08:11:01;;;;;;;;;;;;;;;15.93;41.63;92849.34;2058120;69;20060;-80
2023/04/18 08:13:27;;;;;;;;;;;;;;;15.21;43.23;92840.47;2058185;69;20065;-80
2023/04/18 08:15:54;;;;;;;;;;;;;;;16.12;43.07;92851.56;2058012;69;20074;-80
2023/04/18 08:18:21;;;;;;;;;;;;;;;16.96;44.09;92841.56;2058071;69;20141;-81
2023/04/18 08:20:48;;;;;;;;;;;;;;;17.13;40.68;92842.91;2057709;69;20105;-74
2023/04/18 08:23:13;;;;;;;;;;;;;;;16.52;42.76;92848.97;2057839;69;20586;-79
2023/04/18 08:25:39;;;;;;;;;;;;;;;16.40;40.46;92839.94;2057951;69;20497;-75
2023/04/18 08:28:04;;;;;;;;;;;;;;;15.75;43.44;92849.25;2057925;69;20116;-79
2023/04/18 08:30:30;;;;;;;;;;;;;;;17.28;40.99;92847.78;2058085;69;20101;-74
2023/04/18 08:32:55;;;;;;;;;;;;;;;18.13;40.20;92843.03;2057910;69;20089;-79
2023/04/18 08:35:21;;;;;;;;;;;;;;;18.42;39.80;92856.16;2058033;69;20052;-78
2023/04/18 08:37:46;;;;;;;;;;;;;;;18.66;40.20;92839.13;2058140;69;20141;-77
2023/04/18 08:40:12;;;;;;;;;;;;;;;18.33;39.93;92843.03;2057993;69;20180;-79
2023/04/18 08:42:40;;;;;;;;;;;;;;;19.02;36.14;92836.78;2057477;69;20046;-77
2023/04/18 08:45:05;;;;;;;;;;;;;;;19.10;37.34;92850.53;2057936;69;20084;-78
2023/04/18 08:47:34;;;;;;;;;;;;;;;18.57;37.21;92845.97;2057809;69;20090;-77
2023/04/18 08:50:00;;;;;;;;;;;;;;;19.77;37.30;92853.34;2054645;69;20052;-75
2023/04/18 08:52:27;;;;;;;;;;;;;;;19.85;34.93;92849.28;2058041;69;20502;-74
2023/04/18 08:54:52;;;;;;;;;;;;;;;18.76;34.16;92848.06;2058124;69;20058;-76
2023/04/18 08:57:28;;;;;;;;;;;;;;;19.11;35.48;92846.31;2055753;69;20485;-77
2023/04/18 08:59:54;;;;;;;;;;;;;;;18.01;38.00;92841.22;2058248;69;20151;-76
2023/04/18 09:02:22;;;;;;;;;;;;;;;19.62;36.75;92850.75;2057960;69;20137;-77
2023/04/18 09:04:51;;;;;;;;;;;;;;;18.93;32.30;92847.19;2054905;69;20425;-78
2023/04/18 09:07:17;;;;;;;;;;;;;;;20.08;33.02;92848.50;2057869;69;20092;-79
2023/04/18 09:09:45;;;;;;;;;;;;;;;18.71;36.39;92844.34;2057949;69;20164;-78
2023/04/18 09:12:13;;;;;;;;;;;;;;;18.64;34.08;92844.75;2054566;69;20483;-78
2023/04/18 09:14:44;;;;;;;;;;;;;;;20.51;34.34;92846.81;2058015;69;20144;-79
2023/04/18 09:17:17;;;;;;;;;;;;;;;20.26;31.96;92843.28;2058149;69;20050;-78
2023/04/18 09:19:47;;;;;;;;;;;;;;;20.14;34.54;92845.06;2057912;69;20054;-77
2023/04/18 09:22:13;;;;;;;;;;;;;;;20.67;34.67;92837.94;2058032;69;20077;-77
2023/04/18 09:24:46;;;;;;;;;;;;;;;21.52;32.04;92848.56;2054582;69;20086;-81
2023/04/18 09:27:14;;;;;;;;;;;;;;;21.15;31.11;92837.66;2057883;69;20521;-80
2023/04/18 09:29:45;;;;;;;;;;;;;;;21.67;31.73;92843.91;2057929;69;20120;-80
2023/04/18 09:32:32;;;;;;;;;;;;;;;21.50;31.86;92839.94;2057747;69;20145;-76
2023/04/18 09:34:58;;;;;;;;;;;;;;;20.04;30.56;92831.97;2057910;69;20514;-80
2023/04/18 09:37:24;;;;;;;;;;;;;;;20.95;29.64;92835.06;2057991;69;20050;-80
2023/04/18 09:39:50;;;;;;;;;;;;;;;22.21;30.46;92826.41;2057975;69;20053;-76
2023/04/18 09:42:16;;;;;;;;;;;;;;;22.34;29.20;92827.38;2058026;69;20137;-78
2023/04/18 09:44:58;;;;;;;;;;;;;;;19.43;30.35;92821.63;2057840;69;20057;-75
2023/04/18 09:47:25;;;;;;;;;;;;;;;20.55;29.19;92832.63;2057783;69;20509;-76
2023/04/18 09:49:51;;;;;;;;;;;;;;;22.97;29.71;92822.78;2054601;69;20050;-78
2023/04/18 09:52:18;;;;;;;;;;;;;;;21.95;27.13;92825.88;2057916;69;20570;-80
2023/04/18 09:54:46;;;;;;;;;;;;;;;22.07;29.50;92823.94;2057935;69;20461;-80
2023/04/18 09:57:12;;;;;;;;;;;;;;;23.59;29.01;92830.16;2057770;69;20053;-80
2023/04/18 09:59:41;;;;;;;;;;;;;;;23.70;28.42;92822.47;2057701;69;20050;-79
2023/04/18 10:02:08;;;;;;;;;;;;;;;24.02;26.86;92820.00;2054183;69;20054;-77
2023/04/18 10:04:34;;;;;;;;;;;;;;;24.26;26.65;92818.84;2057913;69;20144;-82
2023/04/18 10:07:00;;;;;;;;;;;;;;;24.80;27.18;92821.63;2054566;69;20116;-82
2023/04/18 10:09:30;;;;;;;;;;;;;;;24.14;27.80;92812.94;2058003;69;20161;-81
2023/04/18 10:11:56;;;;;;;;;;;;;;;25.66;26.05;92819.47;2057998;69;20050;-82
2023/04/18 10:14:21;;;;;;;;;;;;;;;26.48;25.01;92822.75;2058152;69;20054;-82
2023/04/18 10:16:47;;;;;;;;;;;;;;;25.16;24.37;92816.94;2057989;69;20061;-82
2023/04/18 10:19:26;;;;;;;;;;;;;;;25.43;25.57;92812.81;2060819;69;20066;-79
2023/04/18 10:21:52;;;;;;;;;;;;;;;26.12;25.99;92806.75;2060675;69;20058;-82
2023/04/18 10:24:36;;;;;;;;;;;;;;;26.84;22.80;92819.25;2059149;69;20058;-79
2023/04/18 10:27:01;;;;;;;;;;;;;;;27.33;22.57;92805.59;2058722;69;20067;-78
2023/04/18 10:29:47;;;;;;;;;;;;;;;28.04;22.86;92809.84;2058533;69;20422;-77
2023/04/18 10:32:12;;;;;;;;;;;;;;;27.85;22.50;92798.31;2058329;69;20062;-81
2023/04/18 10:34:39;;;;;;;;;;;;;;;28.65;21.06;92809.63;2058441;69;20483;-82
2023/04/18 10:37:05;;;;;;;;;;;;;;;29.77;21.04;92808.84;2058034;69;20090;-82
2023/04/18 10:39:45;;;;;;;;;;;;;;;30.19;19.49;92801.16;2058172;69;20054;-81
2023/04/18 10:42:11;;;;;;;;;;;;;;;31.27;17.54;92805.59;2058327;69;20149;-82
2023/04/18 10:44:36;;;;;;;;;;;;;;;31.79;17.43;92800.38;2060680;69;20090;-82
2023/04/18 10:50:30;;;;;;;;;;;;;;;34.59;15.60;92800.69;2058409;69;20049;-78
2023/04/18 10:52:55;;;;;;;;;;;;;;;36.95;15.50;92815.03;2058633;69;20074;-82
2023/04/18 10:55:27;;;;;;;;;;;;;;;36.17;15.52;92801.69;2058382;69;20513;-82
2023/04/18 10:57:55;;;;;;;;;;;;;;;36.09;15.71;92796.81;2058311;69;20058;-82
2023/04/18 11:00:21;;;;;;;;;;;;;;;35.79;15.83;92789.75;2058224;69;20067;-81
2023/04/18 11:02:47;;;;;;;;;;;;;;;37.03;15.14;92796.44;2054839;69;20209;-79
2023/04/18 11:05:17;;;;;;;;;;;;;;;38.72;13.86;92791.72;2054886;69;20153;-80
2023/04/18 11:07:52;;;;;;;;;;;;;;;40.17;14.01;92787.88;2058579;69;20454;-78
2023/04/18 11:10:19;;;;;;;;;;;;;;;41.38;13.48;92792.59;2058430;69;20054;-82
2023/04/18 11:12:45;;;;;;;;;;;;;;;41.47;11.81;92789.91;2058228;69;20081;-80
2023/04/18 11:15:16;;;;;;;;;;;;;;;39.39;12.53;92768.78;2058139;69;20494;-80
2023/04/18 11:17:42;;;;;;;;;;;;;;;39.95;12.22;92766.13;2058054;69;20058;-78
2023/04/18 11:20:14;;;;;;;;;;;;;;;37.43;13.38;92764.78;2058020;69;20421;-78
2023/04/18 11:22:43;;;;;;;;;;;;;;;40.53;12.96;92762.44;2058042;69;20482;-77
2023/04/18 11:25:08;;;;;;;;;;;;;;;42.66;12.35;92769.03;2058057;69;20061;-79
2023/04/18 11:27:34;;;;;;;;;;;;;;;43.97;11.15;92764.50;2058222;69;20053;-79
2023/04/18 11:29:59;;;;;;;;;;;;;;;41.80;12.01;92761.50;2058113;69;20050;-78
2023/04/18 11:32:25;;;;;;;;;;;;;;;39.20;12.20;92759.41;2058098;69;20050;-76
2023/04/18 11:34:53;;;;;;;;;;;;;;;34.80;14.29;92745.25;2058203;69;20043;-78
2023/04/18 11:37:19;;;;;;;;;;;;;;;38.95;12.36;92745.09;2058220;69;20562;-80
2023/04/18 11:39:44;;;;;;;;;;;;;;;35.50;13.05;92754.84;2054808;69;20149;-77
2023/04/18 11:42:10;;;;;;;;;;;;;;;39.06;11.84;92746.03;2058224;69;20107;-79
2023/04/18 11:44:38;;;;;;;;;;;;;;;39.27;12.64;92748.06;2058054;69;20054;-79
2023/04/18 11:47:24;;;;;;;;;;;;;;;41.06;11.28;92753.75;2058000;69;20074;-79
2023/04/18 11:50:00;;;;;;;;;;;;;;;41.42;10.51;92752.53;2038843;70;20055;-82
2023/04/18 11:52:26;;;;;;;;;;;;;;;42.42;12.09;92764.56;2038926;70;20056;-78
2023/04/18 11:54:52;;;;;;;;;;;;;;;42.77;10.49;92755.03;2057916;69;20050;-78
2023/04/18 11:57:27;;;;;;;;;;;;;;;44.05;10.62;92757.34;2058048;69;20048;-79
2023/04/18 11:59:55;;;;;;;;;;;;;;;45.28;9.15;92755.63;2058206;69;20069;-78
2023/04/18 12:02:21;;;;;;;;;;;;;;;45.75;9.90;92752.25;2054831;69;20049;-81
2023/04/18 12:08:18;;;;;;;;;;;;;;;43.16;10.44;92737.13;2058154;69;20134;-79
2023/04/18 12:10:49;;;;;;;;;;;;;;;40.87;11.79;92738.50;2054649;69;20433;-79
2023/04/18 12:13:15;;;;;;;;;;;;;;;44.10;10.25;92734.75;2058032;69;20415;-78
2023/04/18 12:15:42;;;;;;;;;;;;;;;45.36;9.17;92740.91;2057943;69;20498;-79
2023/04/18 12:18:09;;;;;;;;;;;;;;;41.78;10.37;92737.94;2058047;69;20050;-80
2023/04/18 12:20:35;;;;;;;;;;;;;;;38.96;11.67;92722.97;2057982;69;20060;-80
2023/04/18 12:23:02;;;;;;;;;;;;;;;36.98;12.20;92718.88;2058086;69;20153;-79
2023/04/18 12:25:28;;;;;;;;;;;;;;;36.95;12.89;92717.53;2058190;69;20112;-80
2023/04/18 12:27:58;;;;;;;;;;;;;;;40.70;11.68;92721.00;2058165;69;20085;-79
2023/04/18 12:30:25;;;;;;;;;;;;;;;41.89;10.84;92726.97;2058561;69;20070;-78
2023/04/18 12:32:51;;;;;;;;;;;;;;;42.70;9.80;92726.63;2058526;69;20053;-78
2023/04/18 12:35:18;;;;;;;;;;;;;;;43.23;10.17;92723.34;2057987;69;20116;-77
2023/04/18 12:37:44;;;;;;;;;;;;;;;45.46;8.68;92729.88;2057992;69;20193;-78
2023/04/18 12:40:10;;;;;;;;;;;;;;;48.18;8.14;92731.13;2058022;69;20046;-80
2023/04/18 12:42:36;;;;;;;;;;;;;;;45.51;8.56;92713.84;2054666;69;20054;-79
2023/04/18 12:45:02;;;;;;;;;;;;;;;46.57;7.57;92714.19;2058213;69;20043;-79
2023/04/18 12:47:28;;;;;;;;;;;;;;;42.16;8.68;92708.41;2057977;69;20090;-78
2023/04/18 12:49:54;;;;;;;;;;;;;;;44.32;9.35;92702.91;2058187;69;20649;-78
2023/04/18 12:52:19;;;;;;;;;;;;;;;44.99;9.43;92718.31;2038861;69;20073;-78
2023/04/18 12:54:45;;;;;;;;;;;;;;;44.11;8.40;92707.22;2038901;70;20474;-78
2023/04/18 12:57:10;;;;;;;;;;;;;;;44.66;8.90;92710.97;2038818;70;20061;-78
2023/04/18 12:59:35;;;;;;;;;;;;;;;44.62;9.15;92703.75;2038775;70;20051;-78
2023/04/18 13:02:01;;;;;;;;;;;;;;;44.42;9.27;92695.56;2057890;69;20576;-78
2023/04/18 13:04:26;;;;;;;;;;;;;;;44.76;8.44;92687.22;2058239;69;20057;-79
2023/04/18 13:06:52;;;;;;;;;;;;;;;41.86;9.87;92702.03;2058111;69;20050;-80
2023/04/18 13:09:17;;;;;;;;;;;;;;;36.45;11.34;92686.41;2057966;69;20046;-79
2023/04/18 13:11:42;;;;;;;;;;;;;;;33.35;13.99;92666.72;2057960;69;20077;-79
2023/04/18 13:14:08;;;;;;;;;;;;;;;34.81;13.56;92667.03;2058057;69;20085;-79
2023/04/18 13:20:05;;;;;;;;;;;;;;;40.12;11.21;92684.22;2058050;69;20042;-79
2023/04/18 13:22:32;;;;;;;;;;;;;;;38.99;10.79;92674.25;2058031;69;20474;-79
2023/04/18 13:24:57;;;;;;;;;;;;;;;38.05;13.36;92672.63;2057911;69;20049;-79
2023/04/18 13:27:22;;;;;;;;;;;;;;;32.91;14.54;92672.19;2054767;69;20058;-79
2023/04/18 13:29:48;;;;;;;;;;;;;;;35.81;12.90;92676.19;2057748;69;20421;-79